sensor_id;sensor_type;location;lat;lon;timestamp;P1;durP1;ratioP1;P2;durP2;ratioP2
13469;SDS011;6807;48.682;9.032;2022-08-19T00:00:30;14.40;;;12.82;;
13469;SDS011;6807;48.682;9.032;2022-08-19T00:02:57;18.15;;;13.50;;
13469;SDS011;6807;48.682;9.032;2022-08-19T00:05:24;16.58;;;12.75;;
13469;SDS011;6807;48.682;9.032;2022-08-19T00:07:52;15.00;;;12.77;;
13469;SDS011;6807;48.682;9.032;2022-08-19T00:10:19;13.98;;;12.48;;
13469;SDS011;6807;48.682;9.032;2022-08-19T00:12:47;15.95;;;13.10;;
13469;SDS011;6807;48.682;9.032;2022-08-19T00:15:15;14.68;;;12.02;;
13469;SDS011;6807;48.682;9.032;2022-08-19T00:17:44;16.17;;;12.75;;
13469;SDS011;6807;48.682;9.032;2022-08-19T00:20:12;14.48;;;12.77;;
13469;SDS011;6807;48.682;9.032;2022-08-19T00:22:43;13.90;;;11.95;;
13469;SDS011;6807;48.682;9.032;2022-08-19T00:25:12;15.23;;;13.13;;
13469;SDS011;6807;48.682;9.032;2022-08-19T00:27:39;16.80;;;13.90;;
13469;SDS011;6807;48.682;9.032;2022-08-19T00:30:06;15.27;;;12.73;;
13469;SDS011;6807;48.682;9.032;2022-08-19T00:32:34;16.45;;;13.23;;
13469;SDS011;6807;48.682;9.032;2022-08-19T00:35:01;18.52;;;13.88;;
13469;SDS011;6807;48.682;9.032;2022-08-19T00:37:28;15.77;;;14.10;;
13469;SDS011;6807;48.682;9.032;2022-08-19T00:39:55;16.23;;;13.82;;
13469;SDS011;6807;48.682;9.032;2022-08-19T00:42:23;15.77;;;13.52;;
13469;SDS011;6807;48.682;9.032;2022-08-19T00:44:53;18.70;;;13.90;;
13469;SDS011;6807;48.682;9.032;2022-08-19T00:47:20;15.60;;;13.20;;
13469;SDS011;6807;48.682;9.032;2022-08-19T00:49:48;17.40;;;14.18;;
13469;SDS011;6807;48.682;9.032;2022-08-19T00:52:17;17.83;;;14.13;;
13469;SDS011;6807;48.682;9.032;2022-08-19T00:54:47;17.05;;;13.82;;
13469;SDS011;6807;48.682;9.032;2022-08-19T00:57:15;19.38;;;14.88;;
13469;SDS011;6807;48.682;9.032;2022-08-19T00:59:47;16.17;;;14.45;;
13469;SDS011;6807;48.682;9.032;2022-08-19T01:02:18;17.65;;;14.20;;
13469;SDS011;6807;48.682;9.032;2022-08-19T01:04:45;15.68;;;13.98;;
13469;SDS011;6807;48.682;9.032;2022-08-19T01:07:12;17.63;;;14.68;;
13469;SDS011;6807;48.682;9.032;2022-08-19T01:09:39;19.67;;;15.90;;
13469;SDS011;6807;48.682;9.032;2022-08-19T01:12:06;18.25;;;14.95;;
13469;SDS011;6807;48.682;9.032;2022-08-19T01:14:33;17.42;;;15.10;;
13469;SDS011;6807;48.682;9.032;2022-08-19T01:17:04;19.58;;;15.02;;
13469;SDS011;6807;48.682;9.032;2022-08-19T01:19:33;18.25;;;15.07;;
13469;SDS011;6807;48.682;9.032;2022-08-19T01:22:03;19.00;;;15.05;;
13469;SDS011;6807;48.682;9.032;2022-08-19T01:24:36;18.58;;;14.52;;
13469;SDS011;6807;48.682;9.032;2022-08-19T01:27:03;18.45;;;16.05;;
13469;SDS011;6807;48.682;9.032;2022-08-19T01:29:30;20.00;;;15.90;;
13469;SDS011;6807;48.682;9.032;2022-08-19T01:31:58;18.60;;;15.35;;
13469;SDS011;6807;48.682;9.032;2022-08-19T01:34:26;17.60;;;15.70;;
13469;SDS011;6807;48.682;9.032;2022-08-19T01:36:53;20.50;;;15.68;;
13469;SDS011;6807;48.682;9.032;2022-08-19T01:39:21;20.75;;;15.75;;
13469;SDS011;6807;48.682;9.032;2022-08-19T01:41:52;19.55;;;15.48;;
13469;SDS011;6807;48.682;9.032;2022-08-19T01:44:20;18.25;;;15.98;;
13469;SDS011;6807;48.682;9.032;2022-08-19T01:46:49;21.02;;;16.10;;
13469;SDS011;6807;48.682;9.032;2022-08-19T01:49:18;20.23;;;16.08;;
13469;SDS011;6807;48.682;9.032;2022-08-19T01:51:47;22.33;;;18.17;;
13469;SDS011;6807;48.682;9.032;2022-08-19T01:54:16;22.05;;;16.95;;
13469;SDS011;6807;48.682;9.032;2022-08-19T01:56:44;19.73;;;15.90;;
13469;SDS011;6807;48.682;9.032;2022-08-19T01:59:13;18.88;;;16.10;;
13469;SDS011;6807;48.682;9.032;2022-08-19T02:01:41;18.27;;;16.30;;
13469;SDS011;6807;48.682;9.032;2022-08-19T02:04:08;21.40;;;16.90;;
13469;SDS011;6807;48.682;9.032;2022-08-19T02:06:35;22.02;;;17.98;;
13469;SDS011;6807;48.682;9.032;2022-08-19T02:09:03;22.33;;;16.58;;
13469;SDS011;6807;48.682;9.032;2022-08-19T02:11:32;21.92;;;17.08;;
13469;SDS011;6807;48.682;9.032;2022-08-19T02:14:02;22.38;;;17.67;;
13469;SDS011;6807;48.682;9.032;2022-08-19T02:16:32;18.50;;;16.50;;
13469;SDS011;6807;48.682;9.032;2022-08-19T02:18:59;23.38;;;17.55;;
13469;SDS011;6807;48.682;9.032;2022-08-19T02:21:27;21.08;;;16.98;;
13469;SDS011;6807;48.682;9.032;2022-08-19T02:23:55;21.33;;;17.38;;
13469;SDS011;6807;48.682;9.032;2022-08-19T02:26:22;20.65;;;17.63;;
13469;SDS011;6807;48.682;9.032;2022-08-19T02:28:51;21.27;;;17.38;;
13469;SDS011;6807;48.682;9.032;2022-08-19T02:31:19;23.17;;;17.25;;
13469;SDS011;6807;48.682;9.032;2022-08-19T02:33:48;24.75;;;17.83;;
13469;SDS011;6807;48.682;9.032;2022-08-19T02:36:17;22.63;;;17.90;;
13469;SDS011;6807;48.682;9.032;2022-08-19T02:38:44;21.23;;;17.05;;
13469;SDS011;6807;48.682;9.032;2022-08-19T02:41:12;23.92;;;18.77;;
13469;SDS011;6807;48.682;9.032;2022-08-19T02:43:41;21.17;;;18.05;;
13469;SDS011;6807;48.682;9.032;2022-08-19T02:46:12;21.33;;;17.77;;
13469;SDS011;6807;48.682;9.032;2022-08-19T02:48:42;22.23;;;17.88;;
13469;SDS011;6807;48.682;9.032;2022-08-19T02:51:14;26.38;;;19.65;;
13469;SDS011;6807;48.682;9.032;2022-08-19T02:53:42;23.23;;;19.38;;
13469;SDS011;6807;48.682;9.032;2022-08-19T02:56:09;20.30;;;17.67;;
13469;SDS011;6807;48.682;9.032;2022-08-19T02:58:36;26.40;;;19.73;;
13469;SDS011;6807;48.682;9.032;2022-08-19T03:01:04;24.13;;;19.15;;
13469;SDS011;6807;48.682;9.032;2022-08-19T03:03:31;20.77;;;17.38;;
13469;SDS011;6807;48.682;9.032;2022-08-19T03:06:04;26.40;;;19.10;;
13469;SDS011;6807;48.682;9.032;2022-08-19T03:08:35;22.15;;;17.88;;
13469;SDS011;6807;48.682;9.032;2022-08-19T03:11:03;24.08;;;19.48;;
13469;SDS011;6807;48.682;9.032;2022-08-19T03:13:30;23.33;;;19.10;;
13469;SDS011;6807;48.682;9.032;2022-08-19T03:15:57;24.58;;;19.48;;
13469;SDS011;6807;48.682;9.032;2022-08-19T03:18:24;24.48;;;19.98;;
13469;SDS011;6807;48.682;9.032;2022-08-19T03:20:52;24.50;;;20.23;;
13469;SDS011;6807;48.682;9.032;2022-08-19T03:23:20;22.42;;;18.73;;
13469;SDS011;6807;48.682;9.032;2022-08-19T03:25:49;24.17;;;20.13;;
13469;SDS011;6807;48.682;9.032;2022-08-19T03:28:18;23.40;;;20.27;;
13469;SDS011;6807;48.682;9.032;2022-08-19T03:30:54;22.25;;;18.58;;
13469;SDS011;6807;48.682;9.032;2022-08-19T03:33:23;23.48;;;19.48;;
13469;SDS011;6807;48.682;9.032;2022-08-19T03:36:04;24.77;;;21.00;;
13469;SDS011;6807;48.682;9.032;2022-08-19T03:38:34;25.33;;;20.52;;
13469;SDS011;6807;48.682;9.032;2022-08-19T03:41:06;24.35;;;20.75;;
13469;SDS011;6807;48.682;9.032;2022-08-19T03:43:35;27.80;;;21.15;;
13469;SDS011;6807;48.682;9.032;2022-08-19T03:46:04;26.35;;;21.20;;
13469;SDS011;6807;48.682;9.032;2022-08-19T03:48:33;26.45;;;20.45;;
13469;SDS011;6807;48.682;9.032;2022-08-19T03:51:01;26.20;;;20.88;;
13469;SDS011;6807;48.682;9.032;2022-08-19T03:53:29;25.25;;;21.85;;
13469;SDS011;6807;48.682;9.032;2022-08-19T03:55:57;27.30;;;22.25;;
13469;SDS011;6807;48.682;9.032;2022-08-19T03:58:26;23.65;;;21.00;;
13469;SDS011;6807;48.682;9.032;2022-08-19T04:00:53;27.50;;;22.08;;
13469;SDS011;6807;48.682;9.032;2022-08-19T04:03:21;30.73;;;21.70;;
13469;SDS011;6807;48.682;9.032;2022-08-19T04:05:48;32.30;;;22.30;;
13469;SDS011;6807;48.682;9.032;2022-08-19T04:08:15;26.30;;;21.20;;
13469;SDS011;6807;48.682;9.032;2022-08-19T04:10:46;24.95;;;20.38;;
13469;SDS011;6807;48.682;9.032;2022-08-19T04:13:14;28.42;;;21.83;;
13469;SDS011;6807;48.682;9.032;2022-08-19T04:15:43;30.02;;;21.92;;
13469;SDS011;6807;48.682;9.032;2022-08-19T04:18:11;29.52;;;22.17;;
13469;SDS011;6807;48.682;9.032;2022-08-19T04:20:39;24.33;;;21.13;;
13469;SDS011;6807;48.682;9.032;2022-08-19T04:23:10;26.48;;;21.45;;
13469;SDS011;6807;48.682;9.032;2022-08-19T04:25:38;26.52;;;22.38;;
13469;SDS011;6807;48.682;9.032;2022-08-19T04:28:06;27.88;;;21.73;;
13469;SDS011;6807;48.682;9.032;2022-08-19T04:30:38;28.73;;;21.92;;
13469;SDS011;6807;48.682;9.032;2022-08-19T04:33:09;26.73;;;22.40;;
13469;SDS011;6807;48.682;9.032;2022-08-19T04:35:38;28.55;;;22.02;;
13469;SDS011;6807;48.682;9.032;2022-08-19T04:38:07;27.33;;;22.20;;
13469;SDS011;6807;48.682;9.032;2022-08-19T04:40:34;31.80;;;23.45;;
13469;SDS011;6807;48.682;9.032;2022-08-19T04:43:23;26.83;;;21.65;;
13469;SDS011;6807;48.682;9.032;2022-08-19T04:45:50;27.73;;;21.42;;
13469;SDS011;6807;48.682;9.032;2022-08-19T04:48:19;28.73;;;22.58;;
13469;SDS011;6807;48.682;9.032;2022-08-19T04:50:50;31.25;;;22.77;;
13469;SDS011;6807;48.682;9.032;2022-08-19T04:53:22;29.52;;;23.90;;
13469;SDS011;6807;48.682;9.032;2022-08-19T04:55:54;29.70;;;23.67;;
13469;SDS011;6807;48.682;9.032;2022-08-19T04:58:21;29.50;;;23.90;;
13469;SDS011;6807;48.682;9.032;2022-08-19T05:00:48;27.33;;;22.58;;
13469;SDS011;6807;48.682;9.032;2022-08-19T05:03:15;28.25;;;22.42;;
13469;SDS011;6807;48.682;9.032;2022-08-19T05:05:44;30.27;;;23.98;;
13469;SDS011;6807;48.682;9.032;2022-08-19T05:08:14;26.65;;;21.67;;
13469;SDS011;6807;48.682;9.032;2022-08-19T05:10:45;29.70;;;23.33;;
13469;SDS011;6807;48.682;9.032;2022-08-19T05:13:13;28.98;;;22.48;;
13469;SDS011;6807;48.682;9.032;2022-08-19T05:15:41;30.65;;;25.27;;
13469;SDS011;6807;48.682;9.032;2022-08-19T05:18:08;26.60;;;21.48;;
13469;SDS011;6807;48.682;9.032;2022-08-19T05:20:55;29.80;;;21.73;;
13469;SDS011;6807;48.682;9.032;2022-08-19T05:23:39;33.33;;;22.90;;
13469;SDS011;6807;48.682;9.032;2022-08-19T05:26:07;25.70;;;20.88;;
13469;SDS011;6807;48.682;9.032;2022-08-19T05:28:36;26.15;;;21.17;;
13469;SDS011;6807;48.682;9.032;2022-08-19T05:31:03;27.52;;;21.33;;
13469;SDS011;6807;48.682;9.032;2022-08-19T05:33:30;27.92;;;20.95;;
13469;SDS011;6807;48.682;9.032;2022-08-19T05:35:59;25.92;;;21.52;;
13469;SDS011;6807;48.682;9.032;2022-08-19T05:38:27;27.50;;;21.85;;
13469;SDS011;6807;48.682;9.032;2022-08-19T05:40:55;28.65;;;21.35;;
13469;SDS011;6807;48.682;9.032;2022-08-19T05:43:22;29.23;;;22.73;;
13469;SDS011;6807;48.682;9.032;2022-08-19T05:45:50;27.60;;;19.88;;
13469;SDS011;6807;48.682;9.032;2022-08-19T05:48:17;27.08;;;22.13;;
13469;SDS011;6807;48.682;9.032;2022-08-19T05:50:45;25.88;;;19.55;;
13469;SDS011;6807;48.682;9.032;2022-08-19T05:53:16;28.10;;;21.60;;
13469;SDS011;6807;48.682;9.032;2022-08-19T05:55:43;26.70;;;20.80;;
13469;SDS011;6807;48.682;9.032;2022-08-19T05:58:11;26.10;;;20.67;;
13469;SDS011;6807;48.682;9.032;2022-08-19T06:00:38;30.63;;;21.88;;
13469;SDS011;6807;48.682;9.032;2022-08-19T06:03:06;26.00;;;20.33;;
13469;SDS011;6807;48.682;9.032;2022-08-19T06:05:33;29.60;;;21.67;;
13469;SDS011;6807;48.682;9.032;2022-08-19T06:08:00;27.55;;;20.95;;
13469;SDS011;6807;48.682;9.032;2022-08-19T06:10:29;26.17;;;20.33;;
13469;SDS011;6807;48.682;9.032;2022-08-19T06:12:56;28.38;;;20.95;;
13469;SDS011;6807;48.682;9.032;2022-08-19T06:15:23;26.67;;;21.17;;
13469;SDS011;6807;48.682;9.032;2022-08-19T06:17:53;28.65;;;20.85;;
13469;SDS011;6807;48.682;9.032;2022-08-19T06:20:20;26.48;;;20.85;;
13469;SDS011;6807;48.682;9.032;2022-08-19T06:22:48;27.25;;;21.50;;
13469;SDS011;6807;48.682;9.032;2022-08-19T06:25:17;29.88;;;21.58;;
13469;SDS011;6807;48.682;9.032;2022-08-19T06:27:45;25.83;;;21.30;;
13469;SDS011;6807;48.682;9.032;2022-08-19T06:30:13;27.90;;;21.60;;
13469;SDS011;6807;48.682;9.032;2022-08-19T06:32:40;24.60;;;19.40;;
13469;SDS011;6807;48.682;9.032;2022-08-19T06:35:07;26.48;;;18.83;;
13469;SDS011;6807;48.682;9.032;2022-08-19T06:37:36;24.17;;;19.65;;
13469;SDS011;6807;48.682;9.032;2022-08-19T06:40:03;25.60;;;19.95;;
13469;SDS011;6807;48.682;9.032;2022-08-19T06:42:31;28.65;;;21.20;;
13469;SDS011;6807;48.682;9.032;2022-08-19T06:45:01;26.88;;;20.88;;
13469;SDS011;6807;48.682;9.032;2022-08-19T06:47:29;25.75;;;20.60;;
13469;SDS011;6807;48.682;9.032;2022-08-19T06:49:57;26.55;;;21.00;;
13469;SDS011;6807;48.682;9.032;2022-08-19T06:52:27;25.40;;;19.25;;
13469;SDS011;6807;48.682;9.032;2022-08-19T06:54:55;24.67;;;18.42;;
13469;SDS011;6807;48.682;9.032;2022-08-19T06:57:23;24.70;;;20.75;;
13469;SDS011;6807;48.682;9.032;2022-08-19T07:02:51;22.92;;;19.05;;
13469;SDS011;6807;48.682;9.032;2022-08-19T07:05:29;23.83;;;19.48;;
13469;SDS011;6807;48.682;9.032;2022-08-19T07:07:58;26.00;;;18.30;;
13469;SDS011;6807;48.682;9.032;2022-08-19T07:10:25;22.63;;;18.48;;
13469;SDS011;6807;48.682;9.032;2022-08-19T07:12:54;23.98;;;18.67;;
13469;SDS011;6807;48.682;9.032;2022-08-19T07:17:59;24.33;;;18.48;;
13469;SDS011;6807;48.682;9.032;2022-08-19T07:20:27;23.95;;;17.92;;
13469;SDS011;6807;48.682;9.032;2022-08-19T07:22:54;21.15;;;17.33;;
13469;SDS011;6807;48.682;9.032;2022-08-19T07:25:22;21.02;;;17.05;;
13469;SDS011;6807;48.682;9.032;2022-08-19T07:27:50;21.02;;;17.80;;
13469;SDS011;6807;48.682;9.032;2022-08-19T07:30:17;20.67;;;17.15;;
13469;SDS011;6807;48.682;9.032;2022-08-19T07:32:44;22.75;;;17.80;;
13469;SDS011;6807;48.682;9.032;2022-08-19T07:35:13;22.30;;;16.77;;
13469;SDS011;6807;48.682;9.032;2022-08-19T07:37:42;22.40;;;17.60;;
13469;SDS011;6807;48.682;9.032;2022-08-19T07:40:10;23.63;;;17.13;;
13469;SDS011;6807;48.682;9.032;2022-08-19T07:42:37;20.88;;;17.15;;
13469;SDS011;6807;48.682;9.032;2022-08-19T07:45:05;22.35;;;17.63;;
13469;SDS011;6807;48.682;9.032;2022-08-19T07:47:33;18.27;;;15.55;;
13469;SDS011;6807;48.682;9.032;2022-08-19T07:50:00;20.08;;;17.55;;
13469;SDS011;6807;48.682;9.032;2022-08-19T07:52:31;19.65;;;16.42;;
13469;SDS011;6807;48.682;9.032;2022-08-19T07:55:00;22.80;;;16.92;;
13469;SDS011;6807;48.682;9.032;2022-08-19T07:57:29;20.33;;;15.95;;
13469;SDS011;6807;48.682;9.032;2022-08-19T08:00:03;19.80;;;16.23;;
13469;SDS011;6807;48.682;9.032;2022-08-19T08:02:31;19.60;;;16.05;;
13469;SDS011;6807;48.682;9.032;2022-08-19T08:04:59;18.38;;;15.82;;
13469;SDS011;6807;48.682;9.032;2022-08-19T08:07:45;23.98;;;18.35;;
13469;SDS011;6807;48.682;9.032;2022-08-19T08:10:36;22.08;;;17.17;;
13469;SDS011;6807;48.682;9.032;2022-08-19T08:13:15;22.60;;;16.73;;
13469;SDS011;6807;48.682;9.032;2022-08-19T08:15:43;19.58;;;17.40;;
13469;SDS011;6807;48.682;9.032;2022-08-19T08:18:10;23.73;;;17.83;;
13469;SDS011;6807;48.682;9.032;2022-08-19T08:20:38;21.23;;;18.15;;
13469;SDS011;6807;48.682;9.032;2022-08-19T08:23:10;21.25;;;16.88;;
13469;SDS011;6807;48.682;9.032;2022-08-19T08:25:50;20.60;;;16.90;;
13469;SDS011;6807;48.682;9.032;2022-08-19T08:28:19;19.98;;;16.20;;
13469;SDS011;6807;48.682;9.032;2022-08-19T08:30:47;22.20;;;16.08;;
13469;SDS011;6807;48.682;9.032;2022-08-19T08:33:16;21.23;;;17.67;;
13469;SDS011;6807;48.682;9.032;2022-08-19T08:35:44;19.92;;;16.33;;
13469;SDS011;6807;48.682;9.032;2022-08-19T08:38:13;21.70;;;16.38;;
13469;SDS011;6807;48.682;9.032;2022-08-19T08:40:44;21.20;;;17.77;;
13469;SDS011;6807;48.682;9.032;2022-08-19T08:43:18;21.20;;;16.05;;
13469;SDS011;6807;48.682;9.032;2022-08-19T08:45:49;26.00;;;17.38;;
13469;SDS011;6807;48.682;9.032;2022-08-19T08:48:20;21.55;;;15.90;;
13469;SDS011;6807;48.682;9.032;2022-08-19T08:50:50;18.00;;;15.50;;
13469;SDS011;6807;48.682;9.032;2022-08-19T08:53:20;22.60;;;15.85;;
13469;SDS011;6807;48.682;9.032;2022-08-19T08:55:48;23.10;;;16.88;;
13469;SDS011;6807;48.682;9.032;2022-08-19T08:58:17;18.80;;;15.93;;
13469;SDS011;6807;48.682;9.032;2022-08-19T09:00:47;18.02;;;16.20;;
13469;SDS011;6807;48.682;9.032;2022-08-19T09:03:16;22.08;;;16.23;;
13469;SDS011;6807;48.682;9.032;2022-08-19T09:05:46;21.50;;;16.60;;
13469;SDS011;6807;48.682;9.032;2022-08-19T09:08:18;19.92;;;16.60;;
13469;SDS011;6807;48.682;9.032;2022-08-19T09:10:51;17.33;;;14.70;;
13469;SDS011;6807;48.682;9.032;2022-08-19T09:13:20;18.33;;;14.95;;
13469;SDS011;6807;48.682;9.032;2022-08-19T09:15:52;18.42;;;14.70;;
13469;SDS011;6807;48.682;9.032;2022-08-19T09:18:19;18.60;;;15.43;;
13469;SDS011;6807;48.682;9.032;2022-08-19T09:20:47;18.80;;;14.70;;
13469;SDS011;6807;48.682;9.032;2022-08-19T09:23:14;23.17;;;14.95;;
13469;SDS011;6807;48.682;9.032;2022-08-19T09:25:41;17.92;;;14.85;;
13469;SDS011;6807;48.682;9.032;2022-08-19T09:28:10;18.30;;;14.50;;
13469;SDS011;6807;48.682;9.032;2022-08-19T09:30:38;20.17;;;14.95;;
13469;SDS011;6807;48.682;9.032;2022-08-19T09:33:05;17.80;;;14.05;;
13469;SDS011;6807;48.682;9.032;2022-08-19T09:35:33;18.17;;;14.52;;
13469;SDS011;6807;48.682;9.032;2022-08-19T09:38:01;20.80;;;15.80;;
13469;SDS011;6807;48.682;9.032;2022-08-19T09:40:28;17.88;;;15.98;;
13469;SDS011;6807;48.682;9.032;2022-08-19T09:42:56;16.45;;;14.18;;
13469;SDS011;6807;48.682;9.032;2022-08-19T09:45:28;15.80;;;14.10;;
13469;SDS011;6807;48.682;9.032;2022-08-19T09:47:56;18.35;;;14.32;;
13469;SDS011;6807;48.682;9.032;2022-08-19T09:50:23;16.73;;;13.75;;
13469;SDS011;6807;48.682;9.032;2022-08-19T09:52:50;20.33;;;14.27;;
13469;SDS011;6807;48.682;9.032;2022-08-19T09:55:22;18.38;;;15.65;;
13469;SDS011;6807;48.682;9.032;2022-08-19T09:57:49;17.17;;;14.13;;
13469;SDS011;6807;48.682;9.032;2022-08-19T10:00:16;17.75;;;13.75;;
13469;SDS011;6807;48.682;9.032;2022-08-19T10:02:45;16.15;;;14.55;;
13469;SDS011;6807;48.682;9.032;2022-08-19T10:05:12;16.42;;;13.70;;
13469;SDS011;6807;48.682;9.032;2022-08-19T10:07:56;18.10;;;14.50;;
13469;SDS011;6807;48.682;9.032;2022-08-19T10:10:25;17.80;;;14.00;;
13469;SDS011;6807;48.682;9.032;2022-08-19T10:12:53;16.33;;;13.88;;
13469;SDS011;6807;48.682;9.032;2022-08-19T10:15:21;15.68;;;13.68;;
13469;SDS011;6807;48.682;9.032;2022-08-19T10:17:49;15.45;;;13.65;;
13469;SDS011;6807;48.682;9.032;2022-08-19T10:20:16;17.92;;;12.65;;
13469;SDS011;6807;48.682;9.032;2022-08-19T10:22:44;15.52;;;13.73;;
13469;SDS011;6807;48.682;9.032;2022-08-19T10:25:11;15.95;;;12.80;;
13469;SDS011;6807;48.682;9.032;2022-08-19T10:27:39;14.20;;;12.43;;
13469;SDS011;6807;48.682;9.032;2022-08-19T10:30:08;14.07;;;12.55;;
13469;SDS011;6807;48.682;9.032;2022-08-19T10:32:35;14.25;;;11.75;;
13469;SDS011;6807;48.682;9.032;2022-08-19T10:35:04;15.70;;;11.70;;
13469;SDS011;6807;48.682;9.032;2022-08-19T10:37:33;16.08;;;12.85;;
13469;SDS011;6807;48.682;9.032;2022-08-19T10:40:00;13.55;;;11.55;;
13469;SDS011;6807;48.682;9.032;2022-08-19T10:42:28;15.55;;;11.65;;
13469;SDS011;6807;48.682;9.032;2022-08-19T10:44:56;15.52;;;10.15;;
13469;SDS011;6807;48.682;9.032;2022-08-19T10:47:23;12.27;;;10.70;;
13469;SDS011;6807;48.682;9.032;2022-08-19T10:49:50;14.15;;;9.95;;
13469;SDS011;6807;48.682;9.032;2022-08-19T10:52:37;12.50;;;10.60;;
13469;SDS011;6807;48.682;9.032;2022-08-19T10:55:04;11.98;;;10.38;;
13469;SDS011;6807;48.682;9.032;2022-08-19T10:57:50;11.10;;;9.63;;
13469;SDS011;6807;48.682;9.032;2022-08-19T11:00:18;12.77;;;8.95;;
13469;SDS011;6807;48.682;9.032;2022-08-19T11:02:45;10.38;;;8.80;;
13469;SDS011;6807;48.682;9.032;2022-08-19T11:05:13;10.55;;;8.80;;
13469;SDS011;6807;48.682;9.032;2022-08-19T11:07:42;12.30;;;7.25;;
13469;SDS011;6807;48.682;9.032;2022-08-19T11:10:11;12.35;;;9.18;;
13469;SDS011;6807;48.682;9.032;2022-08-19T11:12:41;9.88;;;8.65;;
13469;SDS011;6807;48.682;9.032;2022-08-19T11:15:08;9.65;;;8.73;;
13469;SDS011;6807;48.682;9.032;2022-08-19T11:17:36;10.65;;;9.55;;
13469;SDS011;6807;48.682;9.032;2022-08-19T11:20:08;12.57;;;9.25;;
13469;SDS011;6807;48.682;9.032;2022-08-19T11:22:37;13.75;;;8.85;;
13469;SDS011;6807;48.682;9.032;2022-08-19T11:25:07;12.23;;;9.48;;
13469;SDS011;6807;48.682;9.032;2022-08-19T11:27:36;12.23;;;9.02;;
13469;SDS011;6807;48.682;9.032;2022-08-19T11:30:06;10.13;;;9.10;;
13469;SDS011;6807;48.682;9.032;2022-08-19T11:32:34;11.43;;;9.23;;
13469;SDS011;6807;48.682;9.032;2022-08-19T11:35:02;10.50;;;9.50;;
13469;SDS011;6807;48.682;9.032;2022-08-19T11:37:29;10.13;;;9.00;;
13469;SDS011;6807;48.682;9.032;2022-08-19T11:40:02;10.73;;;9.45;;
13469;SDS011;6807;48.682;9.032;2022-08-19T11:42:30;12.75;;;9.57;;
13469;SDS011;6807;48.682;9.032;2022-08-19T11:45:15;11.68;;;8.75;;
13469;SDS011;6807;48.682;9.032;2022-08-19T11:47:44;10.00;;;7.70;;
13469;SDS011;6807;48.682;9.032;2022-08-19T11:50:14;10.32;;;8.23;;
13469;SDS011;6807;48.682;9.032;2022-08-19T11:52:47;9.90;;;8.88;;
13469;SDS011;6807;48.682;9.032;2022-08-19T11:55:15;10.20;;;8.32;;
13469;SDS011;6807;48.682;9.032;2022-08-19T12:00:16;10.50;;;8.45;;
13469;SDS011;6807;48.682;9.032;2022-08-19T12:05:13;8.93;;;7.05;;
13469;SDS011;6807;48.682;9.032;2022-08-19T12:07:40;11.38;;;7.47;;
13469;SDS011;6807;48.682;9.032;2022-08-19T12:10:10;9.40;;;7.07;;
13469;SDS011;6807;48.682;9.032;2022-08-19T12:12:37;8.32;;;6.93;;
13469;SDS011;6807;48.682;9.032;2022-08-19T12:15:13;8.52;;;6.80;;
13469;SDS011;6807;48.682;9.032;2022-08-19T12:17:52;8.13;;;6.20;;
13469;SDS011;6807;48.682;9.032;2022-08-19T12:20:26;7.30;;;6.40;;
13469;SDS011;6807;48.682;9.032;2022-08-19T12:22:53;6.88;;;6.15;;
13469;SDS011;6807;48.682;9.032;2022-08-19T12:25:21;8.57;;;6.20;;
13469;SDS011;6807;48.682;9.032;2022-08-19T12:27:49;7.28;;;6.25;;
13469;SDS011;6807;48.682;9.032;2022-08-19T12:30:18;7.78;;;6.28;;
13469;SDS011;6807;48.682;9.032;2022-08-19T12:32:53;7.30;;;5.80;;
13469;SDS011;6807;48.682;9.032;2022-08-19T12:35:21;9.38;;;6.15;;
13469;SDS011;6807;48.682;9.032;2022-08-19T12:37:48;6.07;;;5.47;;
13469;SDS011;6807;48.682;9.032;2022-08-19T12:40:24;7.05;;;5.43;;
13469;SDS011;6807;48.682;9.032;2022-08-19T12:45:30;7.43;;;5.95;;
13469;SDS011;6807;48.682;9.032;2022-08-19T12:48:14;6.25;;;5.65;;
13469;SDS011;6807;48.682;9.032;2022-08-19T12:50:44;6.57;;;5.20;;
13469;SDS011;6807;48.682;9.032;2022-08-19T12:53:18;6.65;;;5.97;;
13469;SDS011;6807;48.682;9.032;2022-08-19T12:55:56;6.15;;;5.65;;
13469;SDS011;6807;48.682;9.032;2022-08-19T12:58:25;6.35;;;5.40;;
13469;SDS011;6807;48.682;9.032;2022-08-19T13:00:52;6.10;;;5.60;;
13469;SDS011;6807;48.682;9.032;2022-08-19T13:03:33;8.75;;;5.70;;
13469;SDS011;6807;48.682;9.032;2022-08-19T13:06:08;5.95;;;5.10;;
13469;SDS011;6807;48.682;9.032;2022-08-19T13:08:46;5.93;;;5.43;;
13469;SDS011;6807;48.682;9.032;2022-08-19T13:11:16;7.28;;;5.95;;
13469;SDS011;6807;48.682;9.032;2022-08-19T13:13:45;10.98;;;5.93;;
13469;SDS011;6807;48.682;9.032;2022-08-19T13:16:12;13.27;;;6.47;;
13469;SDS011;6807;48.682;9.032;2022-08-19T13:18:41;11.27;;;5.88;;
13469;SDS011;6807;48.682;9.032;2022-08-19T13:21:09;7.18;;;5.90;;
13469;SDS011;6807;48.682;9.032;2022-08-19T13:23:38;10.02;;;5.72;;
13469;SDS011;6807;48.682;9.032;2022-08-19T13:26:06;8.88;;;5.95;;
13469;SDS011;6807;48.682;9.032;2022-08-19T13:28:34;12.73;;;5.72;;
13469;SDS011;6807;48.682;9.032;2022-08-19T13:31:29;14.93;;;6.07;;
13469;SDS011;6807;48.682;9.032;2022-08-19T13:34:15;5.90;;;5.38;;
13469;SDS011;6807;48.682;9.032;2022-08-19T13:36:43;6.90;;;5.05;;
13469;SDS011;6807;48.682;9.032;2022-08-19T13:39:10;7.28;;;5.03;;
13469;SDS011;6807;48.682;9.032;2022-08-19T13:41:42;6.45;;;5.47;;
13469;SDS011;6807;48.682;9.032;2022-08-19T13:44:12;5.70;;;5.13;;
13469;SDS011;6807;48.682;9.032;2022-08-19T13:46:40;6.90;;;5.55;;
13469;SDS011;6807;48.682;9.032;2022-08-19T13:49:10;7.40;;;5.72;;
13469;SDS011;6807;48.682;9.032;2022-08-19T13:51:39;5.30;;;4.90;;
13469;SDS011;6807;48.682;9.032;2022-08-19T13:54:06;7.10;;;5.90;;
13469;SDS011;6807;48.682;9.032;2022-08-19T13:56:35;12.00;;;7.20;;
13469;SDS011;6807;48.682;9.032;2022-08-19T13:59:02;7.43;;;6.60;;
13469;SDS011;6807;48.682;9.032;2022-08-19T14:01:29;7.68;;;6.70;;
13469;SDS011;6807;48.682;9.032;2022-08-19T14:03:56;6.22;;;5.70;;
13469;SDS011;6807;48.682;9.032;2022-08-19T14:06:24;8.82;;;6.60;;
13469;SDS011;6807;48.682;9.032;2022-08-19T14:08:52;7.55;;;6.75;;
13469;SDS011;6807;48.682;9.032;2022-08-19T14:11:19;6.78;;;6.18;;
13469;SDS011;6807;48.682;9.032;2022-08-19T14:13:47;8.18;;;6.82;;
13469;SDS011;6807;48.682;9.032;2022-08-19T14:16:15;7.28;;;6.68;;
13469;SDS011;6807;48.682;9.032;2022-08-19T14:18:42;9.25;;;8.35;;
13469;SDS011;6807;48.682;9.032;2022-08-19T14:21:13;8.77;;;7.90;;
13469;SDS011;6807;48.682;9.032;2022-08-19T14:23:41;13.13;;;11.55;;
13469;SDS011;6807;48.682;9.032;2022-08-19T14:26:10;13.88;;;12.48;;
13469;SDS011;6807;48.682;9.032;2022-08-19T14:28:38;8.93;;;8.10;;
13469;SDS011;6807;48.682;9.032;2022-08-19T14:31:06;12.82;;;11.60;;
13469;SDS011;6807;48.682;9.032;2022-08-19T14:33:34;7.72;;;7.03;;
13469;SDS011;6807;48.682;9.032;2022-08-19T14:36:01;8.40;;;7.60;;
13469;SDS011;6807;48.682;9.032;2022-08-19T14:38:29;7.20;;;6.35;;
13469;SDS011;6807;48.682;9.032;2022-08-19T14:41:05;8.38;;;6.53;;
13469;SDS011;6807;48.682;9.032;2022-08-19T14:43:34;6.78;;;6.07;;
13469;SDS011;6807;48.682;9.032;2022-08-19T14:46:01;10.40;;;6.82;;
13469;SDS011;6807;48.682;9.032;2022-08-19T14:48:28;7.63;;;6.63;;
13469;SDS011;6807;48.682;9.032;2022-08-19T14:50:56;13.05;;;11.00;;
13469;SDS011;6807;48.682;9.032;2022-08-19T14:53:23;16.38;;;12.68;;
13469;SDS011;6807;48.682;9.032;2022-08-19T14:55:50;15.00;;;12.38;;
13469;SDS011;6807;48.682;9.032;2022-08-19T14:58:17;7.40;;;6.70;;
13469;SDS011;6807;48.682;9.032;2022-08-19T15:00:46;7.65;;;6.82;;
13469;SDS011;6807;48.682;9.032;2022-08-19T15:03:13;10.68;;;9.57;;
13469;SDS011;6807;48.682;9.032;2022-08-19T15:05:41;11.13;;;10.02;;